createdAt,value
2023-04-17T00:02:20.870Z,8.90
2023-04-17T00:04:49.885Z,8.90
2023-04-17T00:07:17.998Z,8.90
2023-04-17T00:09:46.341Z,8.90
2023-04-17T00:12:14.504Z,8.90
2023-04-17T00:14:42.563Z,8.90
2023-04-17T00:17:10.592Z,8.90
2023-04-17T00:19:38.687Z,8.90
2023-04-17T00:22:07.019Z,8.90
2023-04-17T00:24:35.031Z,8.90
2023-04-17T00:27:03.638Z,8.90
2023-04-17T00:29:34.072Z,8.90
2023-04-17T00:32:02.375Z,8.90
2023-04-17T00:34:30.566Z,8.90
2023-04-17T00:36:58.707Z,8.90
2023-04-17T00:39:27.485Z,8.90
2023-04-17T00:41:55.606Z,8.80
2023-04-17T00:44:23.732Z,8.90
2023-04-17T00:46:51.838Z,8.80
2023-04-17T00:49:20.330Z,8.80
2023-04-17T00:51:48.428Z,8.80
2023-04-17T00:54:18.954Z,8.80
2023-04-17T00:56:47.319Z,8.80
2023-04-17T00:59:17.882Z,8.80
2023-04-17T01:01:48.949Z,8.80
2023-04-17T01:04:17.420Z,8.80
2023-04-17T01:06:45.709Z,8.80
2023-04-17T01:09:14.594Z,8.80
2023-04-17T01:11:42.648Z,8.80
2023-04-17T01:14:10.770Z,8.90
2023-04-17T01:16:40.503Z,8.80
2023-04-17T01:19:10.283Z,8.80
2023-04-17T01:21:38.550Z,8.80
2023-04-17T01:24:07.159Z,8.70
2023-04-17T01:26:36.008Z,8.70
2023-04-17T01:29:05.468Z,8.70
2023-04-17T01:31:33.750Z,8.70
2023-04-17T01:34:02.523Z,8.70
2023-04-17T01:36:30.702Z,8.70
2023-04-17T01:38:58.984Z,8.60
2023-04-17T01:41:27.064Z,8.70
2023-04-17T01:43:55.247Z,8.60
2023-04-17T01:46:23.458Z,8.60
2023-04-17T01:48:53.254Z,8.60
2023-04-17T01:51:21.635Z,8.60
2023-04-17T01:53:50.436Z,8.60
2023-04-17T01:56:19.324Z,8.50
2023-04-17T01:58:47.414Z,8.50
2023-04-17T02:01:15.483Z,8.50
2023-04-17T02:03:44.059Z,8.50
2023-04-17T02:06:12.402Z,8.50
2023-04-17T02:08:40.450Z,8.40
2023-04-17T02:11:08.612Z,8.40
2023-04-17T02:13:37.348Z,8.50
2023-04-17T02:16:05.515Z,8.50
2023-04-17T02:18:33.610Z,8.50
2023-04-17T02:21:01.690Z,8.50
2023-04-17T02:23:29.774Z,8.50
2023-04-17T02:25:58.282Z,8.50
2023-04-17T02:28:26.379Z,8.50
2023-04-17T02:30:54.998Z,8.50
2023-04-17T02:33:23.165Z,8.60
2023-04-17T02:35:51.663Z,8.60
2023-04-17T02:38:32.300Z,8.60
2023-04-17T02:41:03.433Z,8.50
2023-04-17T02:43:32.676Z,8.60
2023-04-17T02:46:00.858Z,8.60
2023-04-17T02:48:29.141Z,8.60
2023-04-17T02:50:57.415Z,8.70
2023-04-17T02:53:25.537Z,8.70
2023-04-17T02:55:54.088Z,8.60
2023-04-17T02:58:25.013Z,8.70
2023-04-17T03:00:53.134Z,8.60
2023-04-17T03:03:21.333Z,8.70
2023-04-17T03:05:49.642Z,8.70
2023-04-17T03:08:17.702Z,8.60
2023-04-17T03:10:48.002Z,8.60
2023-04-17T03:13:16.149Z,8.60
2023-04-17T03:15:44.146Z,8.70
2023-04-17T03:18:12.329Z,8.70
2023-04-17T03:20:40.367Z,8.70
2023-04-17T03:23:08.464Z,8.70
2023-04-17T03:25:36.494Z,8.70
2023-04-17T03:28:04.769Z,8.70
2023-04-17T03:30:34.644Z,8.70
2023-04-17T03:33:07.617Z,8.70
2023-04-17T03:35:35.777Z,8.70
2023-04-17T03:38:07.662Z,8.70
2023-04-17T03:40:35.926Z,8.70
2023-04-17T03:43:04.010Z,8.70
2023-04-17T03:45:33.586Z,8.70
2023-04-17T03:48:02.392Z,8.70
2023-04-17T03:50:31.546Z,8.70
2023-04-17T03:52:59.650Z,8.70
2023-04-17T03:55:30.771Z,8.70
2023-04-17T03:57:59.436Z,8.70
2023-04-17T04:00:36.124Z,8.70
2023-04-17T04:03:08.956Z,8.60
2023-04-17T04:05:41.915Z,8.60
2023-04-17T04:08:11.972Z,8.70
2023-04-17T04:10:46.383Z,8.70
2023-04-17T04:13:20.335Z,8.60
2023-04-17T04:15:54.218Z,8.60
2023-04-17T04:18:26.840Z,8.60
2023-04-17T04:20:57.300Z,8.60
2023-04-17T04:23:31.841Z,8.60
2023-04-17T04:26:03.051Z,8.60
2023-04-17T04:28:49.720Z,8.60
2023-04-17T04:31:31.828Z,8.60
2023-04-17T04:34:03.500Z,8.60
2023-04-17T04:36:32.441Z,8.60
2023-04-17T04:39:11.142Z,8.60
2023-04-17T04:41:39.514Z,8.60
2023-04-17T04:44:10.748Z,8.60
2023-04-17T04:46:40.862Z,8.60
2023-04-17T04:49:09.663Z,8.60
2023-04-17T04:51:38.049Z,8.60
2023-04-17T04:54:08.034Z,8.60
2023-04-17T04:56:46.194Z,8.60
2023-04-17T04:59:16.585Z,8.60
2023-04-17T05:01:51.842Z,8.60
2023-04-17T05:04:22.875Z,8.60
2023-04-17T05:06:55.153Z,8.60
2023-04-17T05:09:24.309Z,8.60
2023-04-17T05:11:55.473Z,8.60
2023-04-17T05:14:23.707Z,8.60
2023-04-17T05:16:52.348Z,8.60
2023-04-17T05:19:21.611Z,8.60
2023-04-17T05:21:57.488Z,8.60
2023-04-17T05:24:26.209Z,8.60
2023-04-17T05:26:54.928Z,8.60
2023-04-17T05:29:23.277Z,8.70
2023-04-17T05:31:51.806Z,8.70
2023-04-17T05:34:38.374Z,8.80
2023-04-17T05:37:06.800Z,8.80
2023-04-17T05:39:35.591Z,8.80
2023-04-17T05:42:03.977Z,8.80
2023-04-17T05:44:33.087Z,8.90
2023-04-17T05:47:12.020Z,8.90
2023-04-17T05:49:42.152Z,8.90
2023-04-17T05:52:11.104Z,9.00
2023-04-17T05:54:43.909Z,9.00
2023-04-17T05:57:12.331Z,9.00
2023-04-17T05:59:40.732Z,9.10
2023-04-17T06:02:12.101Z,9.10
2023-04-17T06:04:40.483Z,9.10
2023-04-17T06:07:09.532Z,9.20
2023-04-17T06:09:38.237Z,9.10
2023-04-17T06:12:06.614Z,9.10
2023-04-17T06:14:35.046Z,9.10
2023-04-17T06:17:07.609Z,9.10
2023-04-17T06:19:35.810Z,9.20
2023-04-17T06:22:04.275Z,9.10
2023-04-17T06:24:32.425Z,9.10
2023-04-17T06:27:00.524Z,9.10
2023-04-17T06:29:29.717Z,9.20
2023-04-17T06:31:58.221Z,9.20
2023-04-17T06:34:27.238Z,9.30
2023-04-17T06:36:56.750Z,9.30
2023-04-17T06:39:24.937Z,9.30
2023-04-17T06:41:53.554Z,9.40
2023-04-17T06:44:28.461Z,9.40
2023-04-17T06:46:56.546Z,9.50
2023-04-17T06:49:25.069Z,9.50
2023-04-17T06:51:53.197Z,9.60
2023-04-17T06:54:21.260Z,9.70
2023-04-17T06:56:49.385Z,9.70
2023-04-17T06:59:18.020Z,9.80
2023-04-17T07:01:49.038Z,9.90
2023-04-17T07:04:21.620Z,10.10
2023-04-17T07:06:49.685Z,10.10
2023-04-17T07:09:17.812Z,10.20
2023-04-17T07:11:45.870Z,10.20
2023-04-17T07:14:13.965Z,10.20
2023-04-17T07:16:42.281Z,10.20
2023-04-17T07:19:10.666Z,10.20
2023-04-17T07:21:39.067Z,10.30
2023-04-17T07:24:07.455Z,10.30
2023-04-17T07:26:36.462Z,10.30
2023-04-17T07:29:04.639Z,10.30
2023-04-17T07:31:32.855Z,10.30
2023-04-17T07:34:01.919Z,10.40
2023-04-17T07:36:31.227Z,10.50
2023-04-17T07:38:59.215Z,10.50
2023-04-17T07:41:27.344Z,10.60
2023-04-17T07:43:57.764Z,10.50
2023-04-17T07:46:27.442Z,10.70
2023-04-17T07:48:55.483Z,10.60
2023-04-17T07:51:23.558Z,10.70
2023-04-17T07:53:51.550Z,10.70
2023-04-17T07:56:19.671Z,10.80
2023-04-17T07:58:47.691Z,10.80
2023-04-17T08:01:16.424Z,10.90
2023-04-17T08:03:46.189Z,10.90
2023-04-17T08:06:14.701Z,10.90
2023-04-17T08:08:42.748Z,11.00
2023-04-17T08:11:10.834Z,11.00
2023-04-17T08:13:38.865Z,11.00
2023-04-17T08:16:08.067Z,11.00
2023-04-17T08:18:38.732Z,10.90
2023-04-17T08:21:07.230Z,11.00
2023-04-17T08:23:35.262Z,11.00
2023-04-17T08:26:03.335Z,11.10
2023-04-17T08:28:31.519Z,11.20
2023-04-17T08:30:59.828Z,11.20
2023-04-17T08:33:28.380Z,11.20
2023-04-17T08:35:56.438Z,11.20
2023-04-17T08:38:25.132Z,11.30
2023-04-17T08:40:55.702Z,11.30
2023-04-17T08:43:23.944Z,11.30
2023-04-17T08:45:59.168Z,11.40
2023-04-17T08:48:30.543Z,11.50
2023-04-17T08:50:58.674Z,11.50
2023-04-17T08:53:27.196Z,11.60
2023-04-17T08:55:55.191Z,11.60
2023-04-17T08:58:28.685Z,11.60
2023-04-17T09:01:08.574Z,11.70
2023-04-17T09:03:48.180Z,11.80
2023-04-17T09:06:16.805Z,11.80
2023-04-17T09:09:01.698Z,11.90
2023-04-17T09:11:29.832Z,11.90
2023-04-17T09:13:57.896Z,11.80
2023-04-17T09:16:26.945Z,11.90
2023-04-17T09:19:05.662Z,12.00
2023-04-17T09:21:34.221Z,12.00
2023-04-17T09:24:02.325Z,11.90
2023-04-17T09:26:32.770Z,11.80
2023-04-17T09:29:05.025Z,11.80
2023-04-17T09:31:35.509Z,11.90
2023-04-17T09:34:05.241Z,11.90
2023-04-17T09:36:35.070Z,11.90
2023-04-17T09:39:04.048Z,11.90
2023-04-17T09:41:40.440Z,11.90
2023-04-17T09:44:08.667Z,11.90
2023-04-17T09:46:39.128Z,11.80
2023-04-17T09:49:12.213Z,11.80
2023-04-17T09:51:41.086Z,11.70
2023-04-17T09:54:10.794Z,11.80
2023-04-17T09:56:39.263Z,11.90
2023-04-17T09:59:07.537Z,11.90
2023-04-17T10:01:36.653Z,11.90
2023-04-17T10:04:05.668Z,12.00
2023-04-17T10:06:34.663Z,12.10
2023-04-17T10:09:03.823Z,12.10
2023-04-17T10:11:35.677Z,12.20
2023-04-17T10:14:15.368Z,12.30
2023-04-17T10:16:46.221Z,12.30
2023-04-17T10:19:32.330Z,12.40
2023-04-17T10:22:22.019Z,12.60
2023-04-17T10:24:54.360Z,12.70
2023-04-17T10:27:28.500Z,12.70
2023-04-17T10:29:57.310Z,12.80
2023-04-17T10:32:30.247Z,13.00
2023-04-17T10:35:24.535Z,13.10
2023-04-17T10:37:52.706Z,13.00
2023-04-17T10:40:24.918Z,13.10
2023-04-17T10:43:29.960Z,13.30
2023-04-17T10:46:03.489Z,13.50
2023-04-17T10:48:39.676Z,13.60
2023-04-17T10:51:23.142Z,13.60
2023-04-17T10:53:52.831Z,13.70
2023-04-17T10:56:28.345Z,13.80
2023-04-17T10:58:58.513Z,13.90
2023-04-17T11:01:28.914Z,14.00
2023-04-17T11:03:57.676Z,13.90
2023-04-17T11:06:29.343Z,14.00
2023-04-17T11:08:58.629Z,13.90
2023-04-17T11:11:40.595Z,13.70
2023-04-17T11:14:17.770Z,13.70
2023-04-17T11:16:46.481Z,13.70
2023-04-17T11:19:18.723Z,13.80
2023-04-17T11:21:47.119Z,13.80
2023-04-17T11:24:15.186Z,13.90
2023-04-17T11:26:46.937Z,14.10
2023-04-17T11:29:18.851Z,14.10
2023-04-17T11:31:48.166Z,14.10
2023-04-17T11:34:17.262Z,14.10
2023-04-17T11:36:55.801Z,14.10
2023-04-17T11:39:25.042Z,13.90
2023-04-17T11:41:53.351Z,13.80
2023-04-17T11:44:22.317Z,13.80
2023-04-17T11:46:51.704Z,13.80
2023-04-17T11:49:29.894Z,13.70
2023-04-17T11:52:01.046Z,13.70
2023-04-17T11:54:29.832Z,13.70
2023-04-17T11:57:02.683Z,13.70
2023-04-17T11:59:40.853Z,13.80
2023-04-17T12:02:09.803Z,13.80
2023-04-17T12:04:38.887Z,14.00
2023-04-17T12:07:08.218Z,14.10
2023-04-17T12:09:37.136Z,14.20
2023-04-17T12:12:06.972Z,14.10
2023-04-17T12:14:35.104Z,14.30
2023-04-17T12:17:03.117Z,14.60
2023-04-17T12:19:33.140Z,14.80
2023-04-17T12:22:01.262Z,14.60
2023-04-17T12:24:29.333Z,14.50
2023-04-17T12:26:59.811Z,14.40
2023-04-17T12:29:40.557Z,14.10
2023-04-17T12:32:12.424Z,13.90
2023-04-17T12:34:40.766Z,13.80
2023-04-17T12:37:09.037Z,13.80
2023-04-17T12:39:37.098Z,13.80
2023-04-17T12:42:05.219Z,13.70
2023-04-17T12:44:33.508Z,13.50
2023-04-17T12:47:01.596Z,13.50
2023-04-17T12:49:29.637Z,13.30
2023-04-17T12:51:57.714Z,13.20
2023-04-17T12:54:25.683Z,13.10
2023-04-17T12:56:53.793Z,13.00
2023-04-17T12:59:21.898Z,13.00
2023-04-17T13:01:50.106Z,13.00
2023-04-17T13:04:18.588Z,12.90
2023-04-17T13:06:47.355Z,13.00
2023-04-17T13:09:15.848Z,12.90
2023-04-17T13:11:46.486Z,12.90
2023-04-17T13:14:17.798Z,13.00
2023-04-17T13:16:51.884Z,13.20
2023-04-17T13:19:20.111Z,13.30
2023-04-17T13:21:48.260Z,13.30
2023-04-17T13:24:16.364Z,13.40
2023-04-17T13:26:44.818Z,13.50
2023-04-17T13:29:14.774Z,13.80
2023-04-17T13:31:44.486Z,14.00
2023-04-17T13:34:12.900Z,14.00
2023-04-17T13:36:41.039Z,14.00
2023-04-17T13:39:10.372Z,13.80
2023-04-17T13:41:39.206Z,13.90
2023-04-17T13:44:07.453Z,13.70
2023-04-17T13:46:35.892Z,13.50
2023-04-17T13:49:03.967Z,13.60
2023-04-17T13:51:33.143Z,13.90
2023-04-17T13:54:01.441Z,14.40
2023-04-17T13:56:30.150Z,14.90
2023-04-17T13:58:58.760Z,15.20
2023-04-17T14:01:26.951Z,15.50
2023-04-17T14:03:55.230Z,15.60
2023-04-17T14:06:23.468Z,15.60
2023-04-17T14:08:51.577Z,15.60
2023-04-17T14:11:21.155Z,15.60
2023-04-17T14:13:49.239Z,15.70
2023-04-17T14:16:17.579Z,15.90
2023-04-17T14:18:49.548Z,15.70
2023-04-17T14:21:18.244Z,15.50
2023-04-17T14:23:46.611Z,15.50
2023-04-17T14:26:14.655Z,15.50
2023-04-17T14:28:42.661Z,15.70
2023-04-17T14:31:10.903Z,15.90
2023-04-17T14:33:38.958Z,15.80
2023-04-17T14:36:07.107Z,15.90
2023-04-17T14:38:35.183Z,16.00
2023-04-17T14:41:03.281Z,15.70
2023-04-17T14:43:31.504Z,15.90
2023-04-17T14:45:59.584Z,15.90
2023-04-17T14:48:27.621Z,15.70
2023-04-17T14:50:55.706Z,15.80
2023-04-17T14:53:23.772Z,15.80
2023-04-17T14:55:51.859Z,15.60
2023-04-17T14:58:22.509Z,15.70
2023-04-17T15:00:50.621Z,15.80
2023-04-17T15:03:21.764Z,15.60
2023-04-17T15:05:49.953Z,15.50
2023-04-17T15:08:17.994Z,15.50
2023-04-17T15:10:51.115Z,15.50
2023-04-17T15:13:19.696Z,15.30
2023-04-17T15:15:47.696Z,15.10
2023-04-17T15:18:16.154Z,14.70
2023-04-17T15:20:44.146Z,14.70
2023-04-17T15:23:12.246Z,14.60
2023-04-17T15:25:40.334Z,14.50
2023-04-17T15:28:08.360Z,14.50
2023-04-17T15:30:36.440Z,14.50
2023-04-17T15:33:04.571Z,14.50
2023-04-17T15:35:32.844Z,14.30
2023-04-17T15:38:00.943Z,14.20
2023-04-17T15:40:29.206Z,14.30
2023-04-17T15:42:57.287Z,14.20
2023-04-17T15:45:25.864Z,14.20
2023-04-17T15:47:55.797Z,13.90
2023-04-17T15:50:24.250Z,13.70
2023-04-17T15:52:52.713Z,13.60
2023-04-17T15:55:20.842Z,13.50
2023-04-17T15:57:48.928Z,13.50
2023-04-17T16:00:17.312Z,13.20
2023-04-17T16:02:48.818Z,12.90
2023-04-17T16:05:17.268Z,12.70
2023-04-17T16:07:45.770Z,12.60
2023-04-17T16:10:17.024Z,12.60
2023-04-17T16:12:45.822Z,12.50
2023-04-17T16:15:16.013Z,12.50
2023-04-17T16:17:50.082Z,12.30
2023-04-17T16:20:18.229Z,12.10
2023-04-17T16:22:46.361Z,12.00
2023-04-17T16:25:14.524Z,11.90
2023-04-17T16:27:42.598Z,11.70
2023-04-17T16:30:11.285Z,11.60
2023-04-17T16:32:39.380Z,11.50
2023-04-17T16:35:08.664Z,11.40
2023-04-17T16:37:41.171Z,11.50
2023-04-17T16:40:12.914Z,11.60
2023-04-17T16:42:41.665Z,11.50
2023-04-17T16:45:09.901Z,11.30
2023-04-17T16:47:40.068Z,11.30
2023-04-17T16:50:10.470Z,11.30
2023-04-17T16:52:40.354Z,11.10
2023-04-17T16:55:08.727Z,11.10
2023-04-17T16:57:41.865Z,11.00
2023-04-17T17:00:10.481Z,11.20
2023-04-17T17:02:38.552Z,11.10
2023-04-17T17:05:07.208Z,11.00
2023-04-17T17:07:35.337Z,10.90
2023-04-17T17:10:03.450Z,10.90
2023-04-17T17:12:31.483Z,10.80
2023-04-17T17:15:00.740Z,10.90
2023-04-17T17:17:28.786Z,10.90
2023-04-17T17:19:56.993Z,11.00
2023-04-17T17:22:25.088Z,10.80
2023-04-17T17:24:53.202Z,10.60
2023-04-17T17:27:21.297Z,10.60
2023-04-17T17:29:49.293Z,10.60
2023-04-17T17:32:18.150Z,10.50
2023-04-17T17:34:46.341Z,10.50
2023-04-17T17:37:14.362Z,10.50
2023-04-17T17:39:42.398Z,10.40
2023-04-17T17:42:13.551Z,10.40
2023-04-17T17:44:41.928Z,10.30
2023-04-17T17:47:10.036Z,10.40
2023-04-17T17:49:40.796Z,10.40
2023-04-17T17:52:08.962Z,10.40
2023-04-17T17:54:38.233Z,10.40
2023-04-17T17:57:07.114Z,10.50
2023-04-17T17:59:35.244Z,10.40
2023-04-17T18:02:08.934Z,10.30
2023-04-17T18:04:40.083Z,10.20
2023-04-17T18:07:09.320Z,10.10
2023-04-17T18:09:37.337Z,10.10
2023-04-17T18:12:05.560Z,10.10
2023-04-17T18:14:33.620Z,10.10
2023-04-17T18:17:01.628Z,10.00
2023-04-17T18:19:29.640Z,10.00
2023-04-17T18:21:57.772Z,9.90
2023-04-17T18:24:25.946Z,9.90
2023-04-17T18:26:54.044Z,9.90
2023-04-17T18:29:22.061Z,9.90
2023-04-17T18:31:52.490Z,9.90
2023-04-17T18:34:24.430Z,9.80
2023-04-17T18:36:52.690Z,9.80
2023-04-17T18:39:21.351Z,9.80
2023-04-17T18:41:49.379Z,9.80
2023-04-17T18:44:17.379Z,9.70
2023-04-17T18:46:45.551Z,9.80
2023-04-17T18:49:13.554Z,9.70
2023-04-17T18:51:46.668Z,9.70
2023-04-17T18:54:18.557Z,9.60
2023-04-17T18:56:46.651Z,9.60
2023-04-17T18:59:15.370Z,9.60
2023-04-17T19:01:46.441Z,9.60
2023-04-17T19:04:14.818Z,9.60
2023-04-17T19:06:44.115Z,9.60
2023-04-17T19:09:12.257Z,9.60
2023-04-17T19:11:40.345Z,9.60
2023-04-17T19:14:08.399Z,9.60
2023-04-17T19:16:36.409Z,9.60
2023-04-17T19:19:04.598Z,9.60
2023-04-17T19:21:33.960Z,9.70
2023-04-17T19:24:02.325Z,9.60
2023-04-17T19:26:30.347Z,9.60
2023-04-17T19:28:59.406Z,9.50
2023-04-17T19:31:27.506Z,9.60
2023-04-17T19:33:57.431Z,9.60
2023-04-17T19:36:28.456Z,9.50
2023-04-17T19:39:00.110Z,9.50
2023-04-17T19:41:29.057Z,9.50
2023-04-17T19:43:57.236Z,9.50
2023-04-17T19:46:25.875Z,9.50
2023-04-17T19:48:54.011Z,9.50
2023-04-17T19:51:22.080Z,9.50
2023-04-17T19:53:50.229Z,9.50
2023-04-17T19:56:19.318Z,9.50
2023-04-17T19:58:47.772Z,9.60
2023-04-17T20:01:16.159Z,9.60
2023-04-17T20:03:48.525Z,9.50
2023-04-17T20:06:16.755Z,9.50
2023-04-17T20:08:44.734Z,9.50
2023-04-17T20:11:15.456Z,9.50
2023-04-17T20:13:44.146Z,9.60
2023-04-17T20:16:12.137Z,9.50
2023-04-17T20:18:40.747Z,9.50
2023-04-17T20:21:08.803Z,9.50
2023-04-17T20:23:37.274Z,9.50
2023-04-17T20:26:05.369Z,9.40
2023-04-17T20:28:33.394Z,9.30
2023-04-17T20:31:01.551Z,9.30
2023-04-17T20:33:29.618Z,9.30
2023-04-17T20:35:57.802Z,9.30
2023-04-17T20:38:25.967Z,9.20
2023-04-17T20:40:57.026Z,9.20
2023-04-17T20:43:25.143Z,9.20
2023-04-17T20:45:53.689Z,9.20
2023-04-17T20:48:21.985Z,9.20
2023-04-17T20:50:50.131Z,9.20
2023-04-17T20:53:18.219Z,9.30
2023-04-17T20:55:48.099Z,9.30
2023-04-17T20:58:16.190Z,9.30
2023-04-17T21:00:57.905Z,9.30
2023-04-17T21:03:33.105Z,9.20
2023-04-17T21:06:02.452Z,9.20
2023-04-17T21:08:30.542Z,9.10
2023-04-17T21:10:58.649Z,9.10
2023-04-17T21:13:26.731Z,9.10
2023-04-17T21:15:54.804Z,9.10
2023-04-17T21:18:22.826Z,9.10
2023-04-17T21:20:50.860Z,9.10
2023-04-17T21:23:18.909Z,9.10
2023-04-17T21:25:46.979Z,9.10
2023-04-17T21:28:15.175Z,9.10
2023-04-17T21:30:43.196Z,9.10
2023-04-17T21:33:11.604Z,9.10
2023-04-17T21:35:40.116Z,9.00
2023-04-17T21:38:08.196Z,9.00
2023-04-17T21:40:37.214Z,9.00
2023-04-17T21:43:05.752Z,9.00
2023-04-17T21:45:33.941Z,9.00
2023-04-17T21:48:02.091Z,8.90
2023-04-17T21:50:30.210Z,9.00
2023-04-17T21:52:58.292Z,9.00
2023-04-17T21:55:26.524Z,9.00
2023-04-17T21:57:54.557Z,9.00
2023-04-17T22:00:23.101Z,9.00
2023-04-17T22:02:51.256Z,8.90
2023-04-17T22:05:19.386Z,8.80
2023-04-17T22:07:54.967Z,8.80
2023-04-17T22:10:25.046Z,8.80
2023-04-17T22:12:53.149Z,8.70
2023-04-17T22:15:21.103Z,8.70
2023-04-17T22:17:49.143Z,8.70
2023-04-17T22:20:17.212Z,8.70
2023-04-17T22:22:45.292Z,8.60
2023-04-17T22:25:13.281Z,8.60
2023-04-17T22:27:41.362Z,8.50
2023-04-17T22:30:09.592Z,8.40
2023-04-17T22:32:37.862Z,8.40
2023-04-17T22:35:07.275Z,8.30
2023-04-17T22:37:35.293Z,8.30
2023-04-17T22:40:03.520Z,8.30
2023-04-17T22:42:31.660Z,8.30
2023-04-17T22:44:59.767Z,8.30
2023-04-17T22:47:30.840Z,8.20
2023-04-17T22:49:58.994Z,8.20
2023-04-17T22:52:27.013Z,8.10
2023-04-17T22:54:57.552Z,8.10
2023-04-17T22:57:25.638Z,8.00
2023-04-17T22:59:54.842Z,8.00
2023-04-17T23:02:23.047Z,7.90
2023-04-17T23:04:51.132Z,7.90
2023-04-17T23:07:19.232Z,7.80
2023-04-17T23:09:47.834Z,7.70
2023-04-17T23:12:15.854Z,7.70
2023-04-17T23:14:45.529Z,7.70
2023-04-17T23:17:13.667Z,7.60
2023-04-17T23:19:41.759Z,7.60
2023-04-17T23:22:10.641Z,7.50
2023-04-17T23:24:38.651Z,7.40
2023-04-17T23:27:06.705Z,7.40
2023-04-17T23:29:34.790Z,7.40
2023-04-17T23:32:02.940Z,7.30
2023-04-17T23:34:30.977Z,7.30
2023-04-17T23:36:59.047Z,7.30
2023-04-17T23:39:27.136Z,7.30
2023-04-17T23:41:56.085Z,7.30
2023-04-17T23:44:24.404Z,7.30
2023-04-17T23:46:52.536Z,7.30
2023-04-17T23:49:20.654Z,7.30
2023-04-17T23:51:48.643Z,7.30
2023-04-17T23:54:16.731Z,7.30
2023-04-17T23:56:44.817Z,7.40
2023-04-17T23:59:12.841Z,7.50
